createdAt,value
2023-04-19T00:01:23.484Z,98583.50
2023-04-19T00:03:51.360Z,98578.56
2023-04-19T00:06:19.224Z,98581.19
2023-04-19T00:08:46.742Z,98580.72
2023-04-19T00:11:14.298Z,98575.63
2023-04-19T00:13:41.842Z,98576.03
2023-04-19T00:16:09.429Z,98577.91
2023-04-19T00:18:38.888Z,98567.28
2023-04-19T00:21:06.495Z,98565.41
2023-04-19T00:23:34.022Z,98565.91
2023-04-19T00:26:04.791Z,98561.13
2023-04-19T00:28:33.575Z,98565.56
2023-04-19T00:31:01.035Z,98566.38
2023-04-19T00:33:28.679Z,98557.34
2023-04-19T00:35:58.073Z,98559.28
2023-04-19T00:38:25.819Z,98559.47
2023-04-19T00:40:53.369Z,98556.19
2023-04-19T00:43:21.323Z,98555.75
2023-04-19T00:45:50.008Z,98553.03
2023-04-19T00:48:19.502Z,98561.22
2023-04-19T00:50:47.284Z,98554.69
2023-04-19T00:53:15.956Z,98545.53
2023-04-19T00:55:43.477Z,98551.22
2023-04-19T00:58:11.404Z,98548.75
2023-04-19T01:00:38.903Z,98538.53
2023-04-19T01:03:08.976Z,98535.69
2023-04-19T01:05:36.664Z,98527.72
2023-04-19T01:08:04.325Z,98535.25
2023-04-19T01:10:31.885Z,98527.91
2023-04-19T01:12:59.584Z,98523.81
2023-04-19T01:15:27.133Z,98518.44
2023-04-19T01:17:56.217Z,98514.41
2023-04-19T01:20:24.022Z,98512.31
2023-04-19T01:22:51.442Z,98514.16
2023-04-19T01:25:18.962Z,98505.56
2023-04-19T01:27:46.443Z,98509.84
2023-04-19T01:30:14.115Z,98502.88
2023-04-19T01:32:41.693Z,98508.00
2023-04-19T01:35:11.532Z,98500.41
2023-04-19T01:37:39.123Z,98501.22
2023-04-19T01:40:07.279Z,98496.75
2023-04-19T01:42:34.785Z,98498.53
2023-04-19T01:45:02.253Z,98501.88
2023-04-19T01:47:30.038Z,98495.16
2023-04-19T01:49:57.448Z,98502.94
2023-04-19T01:52:25.049Z,98492.88
2023-04-19T01:54:52.529Z,98497.53
2023-04-19T01:57:20.442Z,98491.56
2023-04-19T01:59:48.305Z,98487.06
2023-04-19T02:02:15.956Z,98489.53
2023-04-19T02:04:44.300Z,98486.69
2023-04-19T02:07:11.822Z,98487.00
2023-04-19T02:09:39.592Z,98484.31
2023-04-19T02:12:07.273Z,98486.09
2023-04-19T02:14:35.572Z,98489.94
2023-04-19T02:17:03.444Z,98488.53
2023-04-19T02:19:30.898Z,98483.88
2023-04-19T02:21:58.414Z,98489.78
2023-04-19T02:24:25.958Z,98484.31
2023-04-19T02:26:53.563Z,98485.94
2023-04-19T02:29:21.186Z,98489.41
2023-04-19T02:31:48.881Z,98484.03
2023-04-19T02:34:16.673Z,98487.13
2023-04-19T02:36:44.405Z,98484.84
2023-04-19T02:39:12.384Z,98485.50
2023-04-19T02:41:39.927Z,98476.91
2023-04-19T02:44:07.820Z,98477.16
2023-04-19T02:46:35.532Z,98475.19
2023-04-19T02:49:03.588Z,98478.22
2023-04-19T02:51:31.339Z,98479.13
2023-04-19T02:53:59.157Z,98472.53
2023-04-19T02:56:26.779Z,98468.97
2023-04-19T02:58:55.231Z,98462.50
2023-04-19T03:01:22.915Z,98466.69
2023-04-19T03:03:51.129Z,98461.50
2023-04-19T03:06:19.211Z,98464.84
2023-04-19T03:08:46.774Z,98455.06
2023-04-19T03:11:16.701Z,98462.56
2023-04-19T03:13:44.467Z,98450.97
2023-04-19T03:16:13.675Z,98446.41
2023-04-19T03:18:43.072Z,98452.72
2023-04-19T03:21:11.500Z,98444.16
2023-04-19T03:23:48.110Z,98441.13
2023-04-19T03:26:15.991Z,98444.38
2023-04-19T03:28:46.959Z,98440.75
2023-04-19T03:31:17.555Z,98428.06
2023-04-19T03:33:48.478Z,98427.25
2023-04-19T03:36:16.855Z,98425.41
2023-04-19T03:38:46.487Z,98415.56
2023-04-19T03:41:24.387Z,98416.75
2023-04-19T03:44:08.708Z,98415.69
2023-04-19T03:46:36.349Z,98408.03
2023-04-19T03:49:04.352Z,98406.84
2023-04-19T03:51:31.974Z,98407.97
2023-04-19T03:53:59.644Z,98412.16
2023-04-19T03:56:29.071Z,98404.41
2023-04-19T03:58:56.597Z,98409.03
2023-04-19T04:01:24.482Z,98403.25
2023-04-19T04:03:53.727Z,98411.41
2023-04-19T04:06:21.381Z,98406.59
2023-04-19T04:08:49.160Z,98405.31
2023-04-19T04:11:16.818Z,98406.06
2023-04-19T04:13:49.061Z,98402.34
2023-04-19T04:16:20.772Z,98406.72
2023-04-19T04:18:50.285Z,98409.19
2023-04-19T04:21:18.395Z,98414.66
2023-04-19T04:23:50.072Z,98414.56
2023-04-19T04:26:39.595Z,98420.50
2023-04-19T04:29:14.775Z,98425.88
2023-04-19T04:31:43.252Z,98411.75
2023-04-19T04:34:11.554Z,98415.59
2023-04-19T04:36:49.749Z,98427.44
2023-04-19T04:39:18.456Z,98431.53
2023-04-19T04:41:48.072Z,98421.69
2023-04-19T04:44:15.642Z,98434.09
2023-04-19T04:46:45.258Z,98411.75
2023-04-19T04:49:17.076Z,98417.84
2023-04-19T04:51:44.530Z,98416.75
2023-04-19T04:54:12.251Z,98411.91
2023-04-19T04:56:40.131Z,98412.28
2023-04-19T04:59:08.437Z,98418.00
2023-04-19T05:01:39.742Z,98410.19
2023-04-19T05:04:07.602Z,98405.88
2023-04-19T05:06:35.211Z,98403.69
2023-04-19T05:09:02.733Z,98407.53
2023-04-19T05:11:34.174Z,98400.72
2023-04-19T05:14:02.649Z,98397.25
2023-04-19T05:16:33.448Z,98405.59
2023-04-19T05:19:01.415Z,98402.03
2023-04-19T05:21:34.581Z,98391.94
2023-04-19T05:24:04.455Z,98394.16
2023-04-19T05:26:34.017Z,98393.16
2023-04-19T05:29:02.982Z,98391.50
2023-04-19T05:31:44.941Z,98397.94
2023-04-19T05:34:21.382Z,98396.84
2023-04-19T05:36:49.884Z,98408.09
2023-04-19T05:39:17.454Z,98404.38
2023-04-19T05:41:45.123Z,98408.38
2023-04-19T05:44:12.880Z,98404.44
2023-04-19T05:46:40.884Z,98406.25
2023-04-19T05:49:11.405Z,98405.91
2023-04-19T05:51:57.394Z,98404.81
2023-04-19T05:54:36.215Z,98407.63
2023-04-19T05:57:05.956Z,98399.81
2023-04-19T05:59:33.542Z,98404.63
2023-04-19T06:02:01.695Z,98402.63
2023-04-19T06:04:30.199Z,98401.69
2023-04-19T06:06:57.809Z,98406.28
2023-04-19T06:09:25.418Z,98399.63
2023-04-19T06:11:54.858Z,98409.56
2023-04-19T06:14:22.840Z,98406.28
2023-04-19T06:16:51.180Z,98405.38
2023-04-19T06:19:18.987Z,98399.41
2023-04-19T06:21:46.522Z,98402.28
2023-04-19T06:24:14.186Z,98402.75
2023-04-19T06:26:41.982Z,98401.94
2023-04-19T06:29:09.486Z,98402.28
2023-04-19T06:31:37.026Z,98397.00
2023-04-19T06:34:04.597Z,98393.81
2023-04-19T06:36:32.593Z,98379.03
2023-04-19T06:39:00.049Z,98378.59
2023-04-19T06:41:27.568Z,98372.16
2023-04-19T06:43:55.058Z,98366.94
2023-04-19T06:46:22.527Z,98376.44
2023-04-19T06:48:50.071Z,98376.44
2023-04-19T06:51:17.754Z,98379.72
2023-04-19T06:53:45.440Z,98375.91
2023-04-19T06:56:13.654Z,98376.25
2023-04-19T06:58:41.057Z,98374.97
2023-04-19T07:01:08.516Z,98371.97
2023-04-19T07:03:36.809Z,98368.81
2023-04-19T07:06:04.645Z,98363.13
2023-04-19T07:08:46.387Z,98360.63
2023-04-19T07:11:17.240Z,98358.84
2023-04-19T07:13:44.780Z,98359.28
2023-04-19T07:16:13.447Z,98357.88
2023-04-19T07:18:41.065Z,98348.28
2023-04-19T07:21:08.595Z,98345.53
2023-04-19T07:23:36.341Z,98338.72
2023-04-19T07:26:04.016Z,98341.38
2023-04-19T07:28:31.779Z,98340.84
2023-04-19T07:30:59.680Z,98344.41
2023-04-19T07:33:31.272Z,98336.47
2023-04-19T07:36:00.127Z,98329.84
2023-04-19T07:38:27.588Z,98334.94
2023-04-19T07:40:55.091Z,98335.72
2023-04-19T07:43:22.568Z,98329.44
2023-04-19T07:45:50.077Z,98333.31
2023-04-19T07:48:17.548Z,98329.19
2023-04-19T07:50:45.060Z,98334.28
2023-04-19T07:53:12.624Z,98325.38
2023-04-19T07:55:40.158Z,98334.16
2023-04-19T07:58:07.697Z,98321.16
2023-04-19T08:00:36.882Z,98331.50
2023-04-19T08:03:04.848Z,98323.16
2023-04-19T08:05:33.032Z,98324.69
2023-04-19T08:08:00.560Z,98315.56
2023-04-19T08:10:29.235Z,98312.84
2023-04-19T08:13:04.276Z,98316.97
2023-04-19T08:18:05.213Z,98306.56
2023-04-19T08:20:33.290Z,98298.75
2023-04-19T08:23:10.481Z,98304.88
2023-04-19T08:25:45.969Z,98298.19
2023-04-19T08:28:13.497Z,98289.94
2023-04-19T08:30:41.344Z,98287.72
2023-04-19T08:33:09.183Z,98288.09
2023-04-19T08:35:38.965Z,98289.75
2023-04-19T08:38:06.574Z,98288.63
2023-04-19T08:40:34.384Z,98284.66
2023-04-19T08:43:07.062Z,98269.91
2023-04-19T08:45:36.140Z,98275.38
2023-04-19T08:48:04.984Z,98273.00
2023-04-19T08:50:38.946Z,98280.94
2023-04-19T08:53:23.829Z,98276.53
2023-04-19T08:58:41.380Z,98278.00
2023-04-19T09:01:34.063Z,98275.75
2023-04-19T09:04:17.237Z,98254.75
2023-04-19T09:06:55.078Z,98272.09
2023-04-19T09:09:36.632Z,98269.56
2023-04-19T09:12:18.390Z,98250.59
2023-04-19T09:15:00.360Z,98261.75
2023-04-19T09:17:28.973Z,98264.19
2023-04-19T09:19:56.465Z,98266.44
2023-04-19T09:22:24.274Z,98259.69
2023-04-19T09:27:31.785Z,98256.88
2023-04-19T09:30:01.606Z,98246.84
2023-04-19T09:32:30.102Z,98246.34
2023-04-19T09:34:59.882Z,98243.72
2023-04-19T09:39:58.142Z,98242.31
2023-04-19T09:43:04.358Z,98245.28
2023-04-19T09:46:00.449Z,98233.06
2023-04-19T09:48:28.079Z,98249.00
2023-04-19T09:51:02.392Z,98244.72
2023-04-19T09:53:35.518Z,98244.88
2023-04-19T09:56:04.289Z,98234.50
2023-04-19T09:58:42.560Z,98234.56
2023-04-19T10:01:20.327Z,98229.84
2023-04-19T10:03:50.488Z,98230.88
2023-04-19T10:08:53.286Z,98225.31
2023-04-19T10:11:27.689Z,98236.69
2023-04-19T10:14:00.093Z,98235.47
2023-04-19T10:16:27.829Z,98237.31
2023-04-19T10:18:56.280Z,98232.56
2023-04-19T10:21:24.267Z,98234.44
2023-04-19T10:23:52.184Z,98229.59
2023-04-19T10:26:19.760Z,98224.50
2023-04-19T10:28:48.312Z,98232.72
2023-04-19T10:31:16.219Z,98230.44
2023-04-19T10:33:43.890Z,98255.63
2023-04-19T10:36:15.062Z,98231.09
2023-04-19T10:38:52.055Z,98222.19
2023-04-19T10:41:20.019Z,98242.69
2023-04-19T10:44:08.268Z,98224.97
2023-04-19T10:46:36.398Z,98215.84
2023-04-19T10:49:05.568Z,98221.00
2023-04-19T10:51:38.820Z,98215.50
2023-04-19T10:54:27.114Z,98211.59
2023-04-19T10:57:02.396Z,98216.22
2023-04-19T10:59:34.460Z,98211.63
2023-04-19T11:02:28.318Z,98210.25
2023-04-19T11:04:56.010Z,98200.38
2023-04-19T11:07:24.957Z,98192.84
2023-04-19T11:09:52.971Z,98191.00
2023-04-19T11:12:21.725Z,98177.72
2023-04-19T11:14:54.886Z,98183.66
2023-04-19T11:17:28.008Z,98180.81
2023-04-19T11:20:03.768Z,98182.22
2023-04-19T11:22:42.318Z,98188.16
2023-04-19T11:25:21.360Z,98193.28
2023-04-19T11:27:51.167Z,98183.03
2023-04-19T11:30:22.730Z,98179.56
2023-04-19T11:32:53.162Z,98183.84
2023-04-19T11:35:22.805Z,98176.31
2023-04-19T11:37:50.807Z,98168.72
2023-04-19T11:40:19.893Z,98168.31
2023-04-19T11:42:53.348Z,98161.19
2023-04-19T11:45:31.659Z,98174.66
2023-04-19T11:48:01.293Z,98166.50
2023-04-19T11:50:42.774Z,98175.50
2023-04-19T11:53:12.928Z,98176.31
2023-04-19T11:55:43.509Z,98168.94
2023-04-19T11:58:26.929Z,98172.66
2023-04-19T12:00:54.527Z,98160.38
2023-04-19T12:03:27.098Z,98174.88
2023-04-19T12:06:03.866Z,98173.44
2023-04-19T12:08:39.143Z,98183.22
2023-04-19T12:11:07.173Z,98171.38
2023-04-19T12:13:35.120Z,98163.00
2023-04-19T12:16:03.504Z,98169.75
2023-04-19T12:19:17.839Z,98156.66
2023-04-19T12:21:46.595Z,98170.94
2023-04-19T12:24:17.492Z,98157.06
2023-04-19T12:27:04.335Z,98166.47
2023-04-19T12:29:33.926Z,98158.72
2023-04-19T12:32:01.795Z,98163.63
2023-04-19T12:34:29.604Z,98159.13
2023-04-19T12:36:57.242Z,98166.28
2023-04-19T12:39:25.067Z,98162.53
2023-04-19T12:41:52.844Z,98165.59
2023-04-19T12:44:20.474Z,98159.47
2023-04-19T12:46:48.079Z,98154.16
2023-04-19T12:49:19.277Z,98149.50
2023-04-19T12:51:47.845Z,98149.28
2023-04-19T12:54:15.982Z,98156.03
2023-04-19T12:56:43.559Z,98150.94
2023-04-19T12:59:11.698Z,98149.09
2023-04-19T13:01:39.658Z,98142.97
2023-04-19T13:04:11.766Z,98139.72
2023-04-19T13:06:40.347Z,98140.97
2023-04-19T13:09:14.219Z,98142.41
2023-04-19T13:11:42.399Z,98134.78
2023-04-19T13:14:09.884Z,98136.66
2023-04-19T13:16:37.343Z,98127.28
2023-04-19T13:19:06.308Z,98127.28
2023-04-19T13:21:33.821Z,98115.84
2023-04-19T13:24:01.351Z,98115.84
2023-04-19T13:26:29.080Z,98120.75
2023-04-19T13:28:56.926Z,98120.56
2023-04-19T13:31:24.455Z,98109.13
2023-04-19T13:33:52.238Z,98109.31
2023-04-19T13:36:20.004Z,98107.88
2023-04-19T13:38:48.219Z,98107.47
2023-04-19T13:41:15.751Z,98101.97
2023-04-19T13:43:43.260Z,98094.16
2023-04-19T13:46:10.832Z,98094.28
2023-04-19T13:48:38.348Z,98063.94
2023-04-19T13:51:06.713Z,98065.88
2023-04-19T13:53:34.210Z,98053.38
2023-04-19T13:56:01.709Z,98070.63
2023-04-19T13:58:29.230Z,98068.97
2023-04-19T14:00:56.934Z,98073.78
2023-04-19T14:03:24.678Z,98061.91
2023-04-19T14:05:52.290Z,98072.97
2023-04-19T14:08:19.729Z,98068.88
2023-04-19T14:10:47.300Z,98067.25
2023-04-19T14:13:14.787Z,98070.53
2023-04-19T14:15:42.340Z,98070.31
2023-04-19T14:18:09.880Z,98066.25
2023-04-19T14:20:37.498Z,98076.03
2023-04-19T14:23:05.013Z,98104.72
2023-04-19T14:25:32.570Z,98091.88
2023-04-19T14:28:00.041Z,98120.41
2023-04-19T14:30:28.494Z,98135.19
2023-04-19T14:32:58.274Z,98133.66
2023-04-19T14:35:25.936Z,98126.16
2023-04-19T14:37:53.457Z,98123.56
2023-04-19T14:40:21.177Z,98119.63
2023-04-19T14:42:48.801Z,98122.56
2023-04-19T14:45:16.264Z,98131.06
2023-04-19T14:47:43.806Z,98134.44
2023-04-19T14:50:11.344Z,98139.06
2023-04-19T14:52:38.849Z,98117.84
2023-04-19T14:55:06.809Z,98124.66
2023-04-19T14:57:34.292Z,98113.00
2023-04-19T15:00:02.310Z,98122.81
2023-04-19T15:02:30.171Z,98124.56
2023-04-19T15:04:57.998Z,98117.31
2023-04-19T15:07:26.339Z,98121.72
2023-04-19T15:09:53.854Z,98125.38
2023-04-19T15:12:21.555Z,98126.56
2023-04-19T15:14:48.956Z,98145.81
2023-04-19T15:17:16.900Z,98147.34
2023-04-19T15:19:46.991Z,98135.34
2023-04-19T15:22:14.512Z,98133.78
2023-04-19T15:24:42.328Z,98138.91
2023-04-19T15:27:09.740Z,98129.59
2023-04-19T15:29:39.506Z,98139.34
2023-04-19T15:32:07.387Z,98136.53
2023-04-19T15:34:34.861Z,98138.72
2023-04-19T15:37:06.031Z,98150.81
2023-04-19T15:39:33.677Z,98137.06
2023-04-19T15:42:02.212Z,98141.72
2023-04-19T15:44:30.075Z,98134.50
2023-04-19T15:46:57.706Z,98130.97
2023-04-19T15:49:25.356Z,98135.53
2023-04-19T15:51:52.736Z,98133.06
2023-04-19T15:54:22.140Z,98128.88
2023-04-19T15:56:49.683Z,98123.94
2023-04-19T15:59:17.400Z,98133.41
2023-04-19T16:01:45.104Z,98130.69
2023-04-19T16:04:12.959Z,98132.97
2023-04-19T16:06:40.546Z,98123.88
2023-04-19T16:09:09.312Z,98132.88
2023-04-19T16:11:36.786Z,98124.22
2023-04-19T16:14:04.259Z,98123.03
2023-04-19T16:16:34.501Z,98118.28
2023-04-19T16:19:02.189Z,98116.31
2023-04-19T16:21:29.955Z,98112.56
2023-04-19T16:23:57.581Z,98103.44
2023-04-19T16:26:25.028Z,98109.72
2023-04-19T16:28:52.973Z,98106.09
2023-04-19T16:31:21.188Z,98108.00
2023-04-19T16:33:48.731Z,98099.88
2023-04-19T16:36:16.349Z,98102.16
2023-04-19T16:38:43.888Z,98103.81
2023-04-19T16:41:11.926Z,98101.78
2023-04-19T16:43:39.395Z,98091.31
2023-04-19T16:46:07.584Z,98091.22
2023-04-19T16:48:35.100Z,98091.50
2023-04-19T16:51:02.499Z,98095.94
2023-04-19T16:53:31.389Z,98092.16
2023-04-19T16:56:00.390Z,98092.41
2023-04-19T16:58:28.028Z,98089.63
2023-04-19T17:00:57.067Z,98085.53
2023-04-19T17:03:24.733Z,98087.75
2023-04-19T17:05:52.358Z,98079.31
2023-04-19T17:08:21.611Z,98079.53
2023-04-19T17:10:49.087Z,98084.22
2023-04-19T17:13:16.640Z,98074.44
2023-04-19T17:15:44.276Z,98076.00
2023-04-19T17:18:11.789Z,98070.38
2023-04-19T17:20:39.313Z,98075.94
2023-04-19T17:23:07.145Z,98075.97
2023-04-19T17:25:34.719Z,98079.63
2023-04-19T17:28:02.315Z,98079.56
2023-04-19T17:30:29.826Z,98079.19
2023-04-19T17:32:57.395Z,98080.44
2023-04-19T17:35:26.255Z,98084.34
2023-04-19T17:37:53.785Z,98083.38
2023-04-19T17:40:21.582Z,98080.97
2023-04-19T17:42:49.048Z,98075.91
2023-04-19T17:45:16.695Z,98080.28
2023-04-19T17:47:44.463Z,98086.63
2023-04-19T17:50:13.446Z,98085.53
2023-04-19T17:52:40.993Z,98081.47
2023-04-19T17:55:09.067Z,98084.19
2023-04-19T17:57:36.561Z,98074.16
2023-04-19T18:00:06.701Z,98087.47
2023-04-19T18:02:36.796Z,98086.91
2023-04-19T18:05:04.749Z,98090.63
2023-04-19T18:07:32.218Z,98085.88
2023-04-19T18:09:59.796Z,98087.25
2023-04-19T18:12:27.662Z,98093.88
2023-04-19T18:14:55.201Z,98086.25
2023-04-19T18:17:22.714Z,98088.72
2023-04-19T18:19:50.228Z,98086.53
2023-04-19T18:22:17.739Z,98087.16
2023-04-19T18:24:46.990Z,98084.59
2023-04-19T18:27:14.374Z,98092.69
2023-04-19T18:29:41.847Z,98096.47
2023-04-19T18:32:09.479Z,98106.31
2023-04-19T18:34:37.044Z,98101.19
2023-04-19T18:37:15.266Z,98093.38
2023-04-19T18:39:43.337Z,98099.75
2023-04-19T18:42:10.872Z,98096.84
2023-04-19T18:44:52.767Z,98102.75
2023-04-19T18:47:22.187Z,98104.78
2023-04-19T18:50:03.780Z,98105.50
2023-04-19T18:52:34.820Z,98106.91
2023-04-19T18:55:03.231Z,98098.84
2023-04-19T18:57:34.710Z,98100.22
2023-04-19T19:00:06.260Z,98100.84
2023-04-19T19:02:36.172Z,98097.38
2023-04-19T19:05:07.511Z,98104.84
2023-04-19T19:07:37.527Z,98097.47
2023-04-19T19:10:18.412Z,98102.84
2023-04-19T19:12:48.418Z,98100.06
2023-04-19T19:15:16.070Z,98099.53
2023-04-19T19:17:48.833Z,98104.66
2023-04-19T19:20:18.796Z,98110.09
2023-04-19T19:22:46.480Z,98110.50
2023-04-19T19:25:14.057Z,98108.94
2023-04-19T19:27:50.156Z,98119.28
2023-04-19T19:30:33.528Z,98118.50
2023-04-19T19:33:02.928Z,98119.69
2023-04-19T19:35:30.414Z,98120.38
2023-04-19T19:37:57.860Z,98120.84
2023-04-19T19:40:25.424Z,98120.16
2023-04-19T19:42:52.960Z,98120.84
2023-04-19T19:45:20.858Z,98118.09
2023-04-19T19:47:49.937Z,98119.75
2023-04-19T19:52:48.375Z,98122.69
2023-04-19T19:55:15.818Z,98111.88
2023-04-19T20:00:36.779Z,98120.97
2023-04-19T20:03:02.330Z,98121.44
2023-04-19T20:05:30.113Z,98110.94
2023-04-19T20:08:12.684Z,98110.44
2023-04-19T20:10:42.488Z,98115.50
2023-04-19T20:13:11.942Z,98114.84
2023-04-19T20:15:40.153Z,98113.56
2023-04-19T20:18:08.444Z,98115.56
2023-04-19T20:20:36.615Z,98112.78
2023-04-19T20:23:04.223Z,98110.63
2023-04-19T20:25:34.717Z,98108.84
2023-04-19T20:28:02.383Z,98110.00
2023-04-19T20:30:29.773Z,98107.66
2023-04-19T20:32:57.724Z,98107.09
2023-04-19T20:35:25.350Z,98108.84
2023-04-19T20:37:53.230Z,98106.78
2023-04-19T20:40:23.076Z,98102.94
2023-04-19T20:42:51.548Z,98105.53
2023-04-19T20:45:19.231Z,98108.06
2023-04-19T20:47:47.311Z,98109.03
2023-04-19T20:50:14.701Z,98105.31
2023-04-19T20:52:42.190Z,98103.16
2023-04-19T20:55:09.895Z,98104.06
2023-04-19T20:57:37.377Z,98103.91
2023-04-19T21:00:08.514Z,98096.44
2023-04-19T21:02:36.740Z,98103.53
2023-04-19T21:05:04.570Z,98097.91
2023-04-19T21:07:32.049Z,98093.91
2023-04-19T21:09:59.538Z,98092.44
2023-04-19T21:12:27.013Z,98097.91
2023-04-19T21:14:54.486Z,98090.16
2023-04-19T21:17:22.078Z,98090.34
2023-04-19T21:19:49.480Z,98097.44
2023-04-19T21:22:16.929Z,98093.16
2023-04-19T21:24:44.348Z,98095.97
2023-04-19T21:27:11.828Z,98096.59
2023-04-19T21:29:39.186Z,98095.72
2023-04-19T21:32:06.779Z,98088.81
2023-04-19T21:34:34.452Z,98090.44
2023-04-19T21:37:01.940Z,98089.44
2023-04-19T21:39:29.337Z,98083.53
2023-04-19T21:41:57.579Z,98087.44
2023-04-19T21:44:24.947Z,98090.25
2023-04-19T21:46:52.575Z,98092.25
2023-04-19T21:49:20.263Z,98093.09
2023-04-19T21:51:47.737Z,98089.78
2023-04-19T21:54:26.685Z,98093.25
2023-04-19T21:56:58.514Z,98097.53
2023-04-19T21:59:26.461Z,98087.44
2023-04-19T22:01:54.193Z,98082.97
2023-04-19T22:04:21.817Z,98082.34
2023-04-19T22:06:49.602Z,98079.06
2023-04-19T22:09:17.182Z,98082.25
2023-04-19T22:11:46.042Z,98084.50
2023-04-19T22:14:13.542Z,98086.34
2023-04-19T22:16:42.279Z,98088.16
2023-04-19T22:19:10.847Z,98089.34
2023-04-19T22:22:06.429Z,98084.50
2023-04-19T22:24:35.886Z,98083.50
2023-04-19T22:27:06.777Z,98091.59
2023-04-19T22:29:36.222Z,98084.50
2023-04-19T22:32:07.697Z,98085.44
2023-04-19T22:34:36.606Z,98080.31
2023-04-19T22:37:03.969Z,98083.41
2023-04-19T22:39:31.429Z,98092.78
2023-04-19T22:41:58.817Z,98089.41
2023-04-19T22:44:26.311Z,98086.41
2023-04-19T22:46:53.777Z,98088.50
2023-04-19T22:49:22.600Z,98090.03
2023-04-19T22:51:50.016Z,98090.03
2023-04-19T22:54:17.552Z,98089.03
2023-04-19T22:56:44.978Z,98088.91
2023-04-19T22:59:13.637Z,98094.91
2023-04-19T23:01:41.622Z,98087.94
2023-04-19T23:04:10.856Z,98085.66
2023-04-19T23:06:38.895Z,98084.69
2023-04-19T23:09:06.443Z,98089.91
2023-04-19T23:11:34.911Z,98090.84
2023-04-19T23:14:02.833Z,98081.13
2023-04-19T23:16:30.424Z,98075.00
2023-04-19T23:18:58.290Z,98080.59
2023-04-19T23:21:25.903Z,98086.41
2023-04-19T23:23:53.415Z,98089.41
2023-04-19T23:26:21.687Z,98083.28
2023-04-19T23:28:49.157Z,98086.75
2023-04-19T23:31:16.735Z,98088.28
2023-04-19T23:33:44.291Z,98086.81
2023-04-19T23:36:11.751Z,98085.72
2023-04-19T23:38:39.293Z,98084.44
2023-04-19T23:41:10.189Z,98082.25
2023-04-19T23:43:37.782Z,98081.44
2023-04-19T23:46:06.774Z,98070.53
2023-04-19T23:48:35.141Z,98075.16
2023-04-19T23:51:02.617Z,98079.06
2023-04-19T23:53:30.217Z,98068.66
2023-04-19T23:55:57.648Z,98063.50
2023-04-19T23:58:25.136Z,98064.31
